sensor_id;sensor_type;location;lat;lon;timestamp;temperature;humidity
10572;DHT22;5334;48.928;12.704;2023-05-07T00:01:26;13.20;99.90
10572;DHT22;5334;48.928;12.704;2023-05-07T00:03:51;13.20;99.90
10572;DHT22;5334;48.928;12.704;2023-05-07T00:06:17;13.20;99.90
10572;DHT22;5334;48.928;12.704;2023-05-07T00:08:42;13.30;99.90
10572;DHT22;5334;48.928;12.704;2023-05-07T00:11:08;13.20;99.90
10572;DHT22;5334;48.928;12.704;2023-05-07T00:13:34;13.20;99.90
10572;DHT22;5334;48.928;12.704;2023-05-07T00:16:04;13.20;99.90
10572;DHT22;5334;48.928;12.704;2023-05-07T00:18:30;13.20;99.90
10572;DHT22;5334;48.928;12.704;2023-05-07T00:20:56;13.20;99.90
10572;DHT22;5334;48.928;12.704;2023-05-07T00:23:22;13.20;99.90
10572;DHT22;5334;48.928;12.704;2023-05-07T00:25:48;13.20;99.90
10572;DHT22;5334;48.928;12.704;2023-05-07T00:28:14;13.20;99.90
10572;DHT22;5334;48.928;12.704;2023-05-07T00:30:39;13.20;99.90
10572;DHT22;5334;48.928;12.704;2023-05-07T00:33:05;13.20;99.90
10572;DHT22;5334;48.928;12.704;2023-05-07T00:35:31;13.20;99.90
10572;DHT22;5334;48.928;12.704;2023-05-07T00:37:57;13.10;99.90
10572;DHT22;5334;48.928;12.704;2023-05-07T00:40:22;13.10;99.90
10572;DHT22;5334;48.928;12.704;2023-05-07T00:42:48;13.00;99.90
10572;DHT22;5334;48.928;12.704;2023-05-07T00:45:15;12.90;99.90
10572;DHT22;5334;48.928;12.704;2023-05-07T00:47:40;12.90;99.90
10572;DHT22;5334;48.928;12.704;2023-05-07T00:50:07;12.90;99.90
10572;DHT22;5334;48.928;12.704;2023-05-07T00:52:33;12.90;99.90
10572;DHT22;5334;48.928;12.704;2023-05-07T00:55:05;12.90;99.90
10572;DHT22;5334;48.928;12.704;2023-05-07T00:57:34;12.90;99.90
10572;DHT22;5334;48.928;12.704;2023-05-07T01:00:03;12.80;99.90
10572;DHT22;5334;48.928;12.704;2023-05-07T01:02:29;12.70;99.90
10572;DHT22;5334;48.928;12.704;2023-05-07T01:04:55;12.70;99.90
10572;DHT22;5334;48.928;12.704;2023-05-07T01:07:22;12.60;99.90
10572;DHT22;5334;48.928;12.704;2023-05-07T01:09:48;12.60;99.90
10572;DHT22;5334;48.928;12.704;2023-05-07T01:12:14;12.60;99.90
10572;DHT22;5334;48.928;12.704;2023-05-07T01:14:41;12.60;99.90
10572;DHT22;5334;48.928;12.704;2023-05-07T01:17:07;12.60;99.90
10572;DHT22;5334;48.928;12.704;2023-05-07T01:19:33;12.50;99.90
10572;DHT22;5334;48.928;12.704;2023-05-07T01:22:09;12.50;99.90
10572;DHT22;5334;48.928;12.704;2023-05-07T01:24:37;12.60;99.90
10572;DHT22;5334;48.928;12.704;2023-05-07T01:27:03;12.60;99.90
10572;DHT22;5334;48.928;12.704;2023-05-07T01:29:29;12.50;99.90
10572;DHT22;5334;48.928;12.704;2023-05-07T01:31:57;12.50;99.90
10572;DHT22;5334;48.928;12.704;2023-05-07T01:34:25;12.50;99.90
10572;DHT22;5334;48.928;12.704;2023-05-07T01:36:54;12.50;99.90
10572;DHT22;5334;48.928;12.704;2023-05-07T01:39:23;12.50;99.90
10572;DHT22;5334;48.928;12.704;2023-05-07T01:41:50;12.50;99.90
10572;DHT22;5334;48.928;12.704;2023-05-07T01:44:16;12.50;99.90
10572;DHT22;5334;48.928;12.704;2023-05-07T01:46:43;12.50;99.90
10572;DHT22;5334;48.928;12.704;2023-05-07T01:49:09;12.60;99.90
10572;DHT22;5334;48.928;12.704;2023-05-07T01:51:35;12.60;99.90
10572;DHT22;5334;48.928;12.704;2023-05-07T01:54:01;12.60;99.90
10572;DHT22;5334;48.928;12.704;2023-05-07T01:56:27;12.60;99.90
10572;DHT22;5334;48.928;12.704;2023-05-07T01:58:52;12.50;99.90
10572;DHT22;5334;48.928;12.704;2023-05-07T02:01:18;12.50;99.90
10572;DHT22;5334;48.928;12.704;2023-05-07T02:03:44;12.40;99.90
10572;DHT22;5334;48.928;12.704;2023-05-07T02:06:09;12.40;99.90
10572;DHT22;5334;48.928;12.704;2023-05-07T02:08:35;12.30;99.90
10572;DHT22;5334;48.928;12.704;2023-05-07T02:11:01;12.30;99.90
10572;DHT22;5334;48.928;12.704;2023-05-07T02:13:30;12.30;99.90
10572;DHT22;5334;48.928;12.704;2023-05-07T02:18:21;12.20;99.90
10572;DHT22;5334;48.928;12.704;2023-05-07T02:20:47;12.30;99.90
10572;DHT22;5334;48.928;12.704;2023-05-07T02:23:12;12.30;99.90
10572;DHT22;5334;48.928;12.704;2023-05-07T02:25:38;12.30;99.90
10572;DHT22;5334;48.928;12.704;2023-05-07T02:28:04;12.30;99.90
10572;DHT22;5334;48.928;12.704;2023-05-07T02:30:30;12.30;99.90
10572;DHT22;5334;48.928;12.704;2023-05-07T02:32:55;12.30;99.90
10572;DHT22;5334;48.928;12.704;2023-05-07T02:35:21;12.30;99.90
10572;DHT22;5334;48.928;12.704;2023-05-07T02:37:46;12.30;99.90
10572;DHT22;5334;48.928;12.704;2023-05-07T02:40:12;12.30;99.90
10572;DHT22;5334;48.928;12.704;2023-05-07T02:42:38;12.30;99.90
10572;DHT22;5334;48.928;12.704;2023-05-07T02:45:04;12.40;99.90
10572;DHT22;5334;48.928;12.704;2023-05-07T02:47:30;12.40;99.90
10572;DHT22;5334;48.928;12.704;2023-05-07T02:49:55;12.40;99.90
10572;DHT22;5334;48.928;12.704;2023-05-07T02:52:21;12.30;99.90
10572;DHT22;5334;48.928;12.704;2023-05-07T02:54:47;12.20;99.90
10572;DHT22;5334;48.928;12.704;2023-05-07T02:57:13;12.20;99.90
10572;DHT22;5334;48.928;12.704;2023-05-07T02:59:38;12.10;99.90
10572;DHT22;5334;48.928;12.704;2023-05-07T03:02:04;12.00;99.90
10572;DHT22;5334;48.928;12.704;2023-05-07T03:04:29;12.00;99.90
10572;DHT22;5334;48.928;12.704;2023-05-07T03:06:55;11.90;99.90
10572;DHT22;5334;48.928;12.704;2023-05-07T03:09:21;11.90;99.90
10572;DHT22;5334;48.928;12.704;2023-05-07T03:11:46;11.90;99.90
10572;DHT22;5334;48.928;12.704;2023-05-07T03:14:12;11.90;99.90
10572;DHT22;5334;48.928;12.704;2023-05-07T03:16:38;11.80;99.90
10572;DHT22;5334;48.928;12.704;2023-05-07T03:19:04;11.70;99.90
10572;DHT22;5334;48.928;12.704;2023-05-07T03:21:30;11.60;99.90
10572;DHT22;5334;48.928;12.704;2023-05-07T03:23:56;11.50;99.90
10572;DHT22;5334;48.928;12.704;2023-05-07T03:26:22;11.50;99.90
10572;DHT22;5334;48.928;12.704;2023-05-07T03:28:47;11.50;99.90
10572;DHT22;5334;48.928;12.704;2023-05-07T03:31:13;11.40;99.90
10572;DHT22;5334;48.928;12.704;2023-05-07T03:33:52;11.30;99.90
10572;DHT22;5334;48.928;12.704;2023-05-07T03:36:19;11.20;99.90
10572;DHT22;5334;48.928;12.704;2023-05-07T03:38:45;11.20;99.90
10572;DHT22;5334;48.928;12.704;2023-05-07T03:41:12;11.30;99.90
10572;DHT22;5334;48.928;12.704;2023-05-07T03:43:38;11.30;99.90
10572;DHT22;5334;48.928;12.704;2023-05-07T03:46:03;11.30;99.90
10572;DHT22;5334;48.928;12.704;2023-05-07T03:48:29;11.30;99.90
10572;DHT22;5334;48.928;12.704;2023-05-07T03:50:55;11.20;99.90
10572;DHT22;5334;48.928;12.704;2023-05-07T03:53:21;11.20;99.90
10572;DHT22;5334;48.928;12.704;2023-05-07T03:55:46;11.30;99.90
10572;DHT22;5334;48.928;12.704;2023-05-07T03:58:12;11.30;99.90
10572;DHT22;5334;48.928;12.704;2023-05-07T04:00:38;11.30;99.90
10572;DHT22;5334;48.928;12.704;2023-05-07T04:03:05;11.40;99.90
10572;DHT22;5334;48.928;12.704;2023-05-07T04:05:31;11.40;99.90
10572;DHT22;5334;48.928;12.704;2023-05-07T04:08:00;11.50;99.90
10572;DHT22;5334;48.928;12.704;2023-05-07T04:10:26;11.50;99.90
10572;DHT22;5334;48.928;12.704;2023-05-07T04:12:53;11.50;99.90
10572;DHT22;5334;48.928;12.704;2023-05-07T04:15:19;11.50;99.90
10572;DHT22;5334;48.928;12.704;2023-05-07T04:17:45;11.50;99.90
10572;DHT22;5334;48.928;12.704;2023-05-07T04:20:15;11.60;99.90
10572;DHT22;5334;48.928;12.704;2023-05-07T04:22:40;11.60;99.90
10572;DHT22;5334;48.928;12.704;2023-05-07T04:25:07;11.60;99.90
10572;DHT22;5334;48.928;12.704;2023-05-07T04:27:34;11.60;99.90
10572;DHT22;5334;48.928;12.704;2023-05-07T04:30:00;11.70;99.90
10572;DHT22;5334;48.928;12.704;2023-05-07T04:32:26;11.70;99.90
10572;DHT22;5334;48.928;12.704;2023-05-07T04:34:54;11.70;99.90
10572;DHT22;5334;48.928;12.704;2023-05-07T04:37:21;11.70;99.90
10572;DHT22;5334;48.928;12.704;2023-05-07T04:39:46;11.90;99.90
10572;DHT22;5334;48.928;12.704;2023-05-07T04:42:16;11.90;99.90
10572;DHT22;5334;48.928;12.704;2023-05-07T04:44:42;11.90;99.90
10572;DHT22;5334;48.928;12.704;2023-05-07T04:47:08;12.00;99.90
10572;DHT22;5334;48.928;12.704;2023-05-07T04:49:34;12.10;99.90
10572;DHT22;5334;48.928;12.704;2023-05-07T04:51:59;12.10;99.90
10572;DHT22;5334;48.928;12.704;2023-05-07T04:54:25;12.20;99.90
10572;DHT22;5334;48.928;12.704;2023-05-07T04:56:51;12.20;99.90
10572;DHT22;5334;48.928;12.704;2023-05-07T04:59:17;12.40;99.90
10572;DHT22;5334;48.928;12.704;2023-05-07T05:01:43;12.60;99.90
10572;DHT22;5334;48.928;12.704;2023-05-07T05:04:09;12.90;99.90
10572;DHT22;5334;48.928;12.704;2023-05-07T05:06:35;13.20;99.90
10572;DHT22;5334;48.928;12.704;2023-05-07T05:09:01;13.50;99.90
10572;DHT22;5334;48.928;12.704;2023-05-07T05:11:26;13.70;99.90
10572;DHT22;5334;48.928;12.704;2023-05-07T05:13:52;14.00;99.90
10572;DHT22;5334;48.928;12.704;2023-05-07T05:16:18;14.20;99.90
10572;DHT22;5334;48.928;12.704;2023-05-07T05:18:43;14.40;99.90
10572;DHT22;5334;48.928;12.704;2023-05-07T05:26:01;15.10;99.90
10572;DHT22;5334;48.928;12.704;2023-05-07T05:28:26;15.30;99.90
10572;DHT22;5334;48.928;12.704;2023-05-07T05:30:53;15.50;99.90
10572;DHT22;5334;48.928;12.704;2023-05-07T05:33:19;15.70;99.90
10572;DHT22;5334;48.928;12.704;2023-05-07T05:35:45;15.90;99.90
10572;DHT22;5334;48.928;12.704;2023-05-07T05:38:10;16.00;99.90
10572;DHT22;5334;48.928;12.704;2023-05-07T05:40:36;16.10;99.90
10572;DHT22;5334;48.928;12.704;2023-05-07T05:43:02;16.20;99.90
10572;DHT22;5334;48.928;12.704;2023-05-07T05:45:27;16.40;99.90
10572;DHT22;5334;48.928;12.704;2023-05-07T05:47:53;16.50;99.90
10572;DHT22;5334;48.928;12.704;2023-05-07T05:50:18;16.70;99.90
10572;DHT22;5334;48.928;12.704;2023-05-07T05:52:44;16.80;99.90
10572;DHT22;5334;48.928;12.704;2023-05-07T05:55:10;17.00;99.90
10572;DHT22;5334;48.928;12.704;2023-05-07T05:57:35;17.20;99.90
10572;DHT22;5334;48.928;12.704;2023-05-07T06:00:02;17.40;99.90
10572;DHT22;5334;48.928;12.704;2023-05-07T06:02:28;17.50;99.90
10572;DHT22;5334;48.928;12.704;2023-05-07T06:04:53;17.70;99.90
10572;DHT22;5334;48.928;12.704;2023-05-07T06:07:19;17.70;99.90
10572;DHT22;5334;48.928;12.704;2023-05-07T06:09:45;17.60;99.90
10572;DHT22;5334;48.928;12.704;2023-05-07T06:12:11;17.50;99.90
10572;DHT22;5334;48.928;12.704;2023-05-07T06:14:37;17.40;99.90
10572;DHT22;5334;48.928;12.704;2023-05-07T06:17:02;17.20;99.90
10572;DHT22;5334;48.928;12.704;2023-05-07T06:19:28;17.10;99.90
10572;DHT22;5334;48.928;12.704;2023-05-07T06:21:54;17.10;99.90
10572;DHT22;5334;48.928;12.704;2023-05-07T06:24:21;17.00;99.90
10572;DHT22;5334;48.928;12.704;2023-05-07T06:26:47;17.00;99.90
10572;DHT22;5334;48.928;12.704;2023-05-07T06:29:13;17.20;99.90
10572;DHT22;5334;48.928;12.704;2023-05-07T06:31:39;17.40;99.90
10572;DHT22;5334;48.928;12.704;2023-05-07T06:34:04;17.60;99.90
10572;DHT22;5334;48.928;12.704;2023-05-07T06:36:30;17.90;99.90
10572;DHT22;5334;48.928;12.704;2023-05-07T06:38:56;18.10;99.90
10572;DHT22;5334;48.928;12.704;2023-05-07T06:41:22;18.50;99.90
10572;DHT22;5334;48.928;12.704;2023-05-07T06:43:48;18.60;99.90
10572;DHT22;5334;48.928;12.704;2023-05-07T06:46:13;18.70;99.90
10572;DHT22;5334;48.928;12.704;2023-05-07T06:48:39;18.80;99.90
10572;DHT22;5334;48.928;12.704;2023-05-07T06:53:35;19.10;99.90
10572;DHT22;5334;48.928;12.704;2023-05-07T06:56:01;19.10;99.90
10572;DHT22;5334;48.928;12.704;2023-05-07T06:58:27;19.20;99.90
10572;DHT22;5334;48.928;12.704;2023-05-07T07:01:04;19.10;99.90
10572;DHT22;5334;48.928;12.704;2023-05-07T07:05:57;19.20;99.90
10572;DHT22;5334;48.928;12.704;2023-05-07T07:08:24;19.30;99.90
10572;DHT22;5334;48.928;12.704;2023-05-07T07:10:50;19.50;99.90
10572;DHT22;5334;48.928;12.704;2023-05-07T07:15:42;19.70;99.90
10572;DHT22;5334;48.928;12.704;2023-05-07T07:18:08;19.80;99.90
10572;DHT22;5334;48.928;12.704;2023-05-07T07:23:00;19.80;99.90
10572;DHT22;5334;48.928;12.704;2023-05-07T07:25:25;19.80;99.90
10572;DHT22;5334;48.928;12.704;2023-05-07T07:30:19;20.50;99.90
10572;DHT22;5334;48.928;12.704;2023-05-07T07:32:48;20.60;99.90
10572;DHT22;5334;48.928;12.704;2023-05-07T07:35:13;20.70;99.90
10572;DHT22;5334;48.928;12.704;2023-05-07T07:37:39;21.00;99.90
10572;DHT22;5334;48.928;12.704;2023-05-07T07:40:05;21.20;99.90
10572;DHT22;5334;48.928;12.704;2023-05-07T07:42:31;21.30;99.90
10572;DHT22;5334;48.928;12.704;2023-05-07T07:44:57;21.50;99.90
10572;DHT22;5334;48.928;12.704;2023-05-07T07:49:49;22.10;99.90
10572;DHT22;5334;48.928;12.704;2023-05-07T07:52:14;22.40;99.90
10572;DHT22;5334;48.928;12.704;2023-05-07T07:54:41;22.50;99.90
10572;DHT22;5334;48.928;12.704;2023-05-07T07:57:06;22.00;99.90
10572;DHT22;5334;48.928;12.704;2023-05-07T07:59:32;22.10;99.90
10572;DHT22;5334;48.928;12.704;2023-05-07T08:01:57;22.10;99.90
10572;DHT22;5334;48.928;12.704;2023-05-07T08:04:23;22.30;99.90
10572;DHT22;5334;48.928;12.704;2023-05-07T08:06:49;22.60;99.90
10572;DHT22;5334;48.928;12.704;2023-05-07T08:09:15;22.70;99.90
10572;DHT22;5334;48.928;12.704;2023-05-07T08:14:07;22.40;99.90
10572;DHT22;5334;48.928;12.704;2023-05-07T08:16:33;22.60;99.90
10572;DHT22;5334;48.928;12.704;2023-05-07T08:18:58;23.20;99.90
10572;DHT22;5334;48.928;12.704;2023-05-07T08:21:24;23.50;99.90
10572;DHT22;5334;48.928;12.704;2023-05-07T08:23:50;23.70;99.90
10572;DHT22;5334;48.928;12.704;2023-05-07T08:26:15;23.80;99.90
10572;DHT22;5334;48.928;12.704;2023-05-07T08:28:41;24.00;99.90
10572;DHT22;5334;48.928;12.704;2023-05-07T08:31:06;23.90;99.90
10572;DHT22;5334;48.928;12.704;2023-05-07T08:33:32;23.70;99.90
10572;DHT22;5334;48.928;12.704;2023-05-07T08:35:58;23.30;99.90
10572;DHT22;5334;48.928;12.704;2023-05-07T08:38:23;23.00;99.90
10572;DHT22;5334;48.928;12.704;2023-05-07T08:40:49;22.80;99.90
10572;DHT22;5334;48.928;12.704;2023-05-07T08:43:15;22.60;99.90
10572;DHT22;5334;48.928;12.704;2023-05-07T08:45:41;22.60;99.90
10572;DHT22;5334;48.928;12.704;2023-05-07T08:48:16;22.50;99.90
10572;DHT22;5334;48.928;12.704;2023-05-07T08:50:42;22.50;99.90
10572;DHT22;5334;48.928;12.704;2023-05-07T08:53:08;22.60;99.90
10572;DHT22;5334;48.928;12.704;2023-05-07T08:55:34;22.60;99.90
10572;DHT22;5334;48.928;12.704;2023-05-07T08:58:00;22.60;99.90
10572;DHT22;5334;48.928;12.704;2023-05-07T09:00:26;22.40;99.90
10572;DHT22;5334;48.928;12.704;2023-05-07T09:02:53;22.10;99.90
10572;DHT22;5334;48.928;12.704;2023-05-07T09:05:19;21.40;99.90
10572;DHT22;5334;48.928;12.704;2023-05-07T09:07:45;21.10;99.90
10572;DHT22;5334;48.928;12.704;2023-05-07T09:10:11;21.10;99.90
10572;DHT22;5334;48.928;12.704;2023-05-07T09:12:37;21.10;99.90
10572;DHT22;5334;48.928;12.704;2023-05-07T09:15:05;21.30;99.90
10572;DHT22;5334;48.928;12.704;2023-05-07T09:17:31;21.90;99.90
10572;DHT22;5334;48.928;12.704;2023-05-07T09:20:02;22.30;99.90
10572;DHT22;5334;48.928;12.704;2023-05-07T09:22:32;22.80;99.90
10572;DHT22;5334;48.928;12.704;2023-05-07T09:24:57;22.90;99.90
10572;DHT22;5334;48.928;12.704;2023-05-07T09:27:23;23.00;99.90
10572;DHT22;5334;48.928;12.704;2023-05-07T09:29:49;22.90;99.90
10572;DHT22;5334;48.928;12.704;2023-05-07T09:32:18;22.90;99.90
10572;DHT22;5334;48.928;12.704;2023-05-07T09:34:47;23.00;99.90
10572;DHT22;5334;48.928;12.704;2023-05-07T09:37:15;22.90;99.90
10572;DHT22;5334;48.928;12.704;2023-05-07T09:39:48;22.90;99.90
10572;DHT22;5334;48.928;12.704;2023-05-07T09:42:14;22.70;99.90
10572;DHT22;5334;48.928;12.704;2023-05-07T09:44:41;22.50;99.90
10572;DHT22;5334;48.928;12.704;2023-05-07T09:47:07;22.50;99.90
10572;DHT22;5334;48.928;12.704;2023-05-07T09:49:37;22.50;99.90
10572;DHT22;5334;48.928;12.704;2023-05-07T09:52:05;22.60;99.90
10572;DHT22;5334;48.928;12.704;2023-05-07T09:54:32;22.70;99.90
10572;DHT22;5334;48.928;12.704;2023-05-07T09:56:59;22.70;99.90
10572;DHT22;5334;48.928;12.704;2023-05-07T09:59:28;22.80;99.90
10572;DHT22;5334;48.928;12.704;2023-05-07T10:01:57;22.90;99.90
10572;DHT22;5334;48.928;12.704;2023-05-07T10:04:25;23.00;99.90
10572;DHT22;5334;48.928;12.704;2023-05-07T10:06:51;23.20;99.90
10572;DHT22;5334;48.928;12.704;2023-05-07T10:09:18;23.10;99.40
10572;DHT22;5334;48.928;12.704;2023-05-07T10:11:43;23.20;99.90
10572;DHT22;5334;48.928;12.704;2023-05-07T10:14:10;23.40;99.90
10572;DHT22;5334;48.928;12.704;2023-05-07T10:16:36;23.50;99.50
10572;DHT22;5334;48.928;12.704;2023-05-07T10:19:06;23.50;99.10
10572;DHT22;5334;48.928;12.704;2023-05-07T10:21:36;23.30;99.40
10572;DHT22;5334;48.928;12.704;2023-05-07T10:24:10;23.50;99.80
10572;DHT22;5334;48.928;12.704;2023-05-07T10:26:42;23.80;99.80
10572;DHT22;5334;48.928;12.704;2023-05-07T10:32:53;24.50;99.10
10572;DHT22;5334;48.928;12.704;2023-05-07T10:35:21;24.70;99.80
10572;DHT22;5334;48.928;12.704;2023-05-07T10:37:48;24.70;99.60
10572;DHT22;5334;48.928;12.704;2023-05-07T10:40:14;24.70;99.30
10572;DHT22;5334;48.928;12.704;2023-05-07T10:42:56;25.40;99.90
10572;DHT22;5334;48.928;12.704;2023-05-07T10:48:13;25.80;99.90
10572;DHT22;5334;48.928;12.704;2023-05-07T10:50:41;25.70;99.90
10572;DHT22;5334;48.928;12.704;2023-05-07T10:55:49;25.60;99.90
10572;DHT22;5334;48.928;12.704;2023-05-07T10:58:23;25.70;99.90
10572;DHT22;5334;48.928;12.704;2023-05-07T11:00:57;25.80;99.90
10572;DHT22;5334;48.928;12.704;2023-05-07T11:08:54;26.50;99.90
10572;DHT22;5334;48.928;12.704;2023-05-07T11:11:44;26.60;99.90
10572;DHT22;5334;48.928;12.704;2023-05-07T11:16:36;27.10;99.90
10572;DHT22;5334;48.928;12.704;2023-05-07T11:19:03;27.10;99.90
10572;DHT22;5334;48.928;12.704;2023-05-07T11:21:38;27.00;99.90
10572;DHT22;5334;48.928;12.704;2023-05-07T11:24:06;27.00;99.90
10572;DHT22;5334;48.928;12.704;2023-05-07T11:26:51;27.00;99.90
10572;DHT22;5334;48.928;12.704;2023-05-07T11:29:18;27.10;99.90
10572;DHT22;5334;48.928;12.704;2023-05-07T11:31:49;27.20;99.90
10572;DHT22;5334;48.928;12.704;2023-05-07T11:36:47;27.70;95.70
10572;DHT22;5334;48.928;12.704;2023-05-07T11:39:27;27.80;96.30
10572;DHT22;5334;48.928;12.704;2023-05-07T11:44:19;27.60;96.00
10572;DHT22;5334;48.928;12.704;2023-05-07T11:46:44;27.50;95.80
10572;DHT22;5334;48.928;12.704;2023-05-07T11:49:10;27.70;95.20
10572;DHT22;5334;48.928;12.704;2023-05-07T11:51:36;27.80;95.80
10572;DHT22;5334;48.928;12.704;2023-05-07T11:54:04;28.00;95.00
10572;DHT22;5334;48.928;12.704;2023-05-07T11:56:34;27.90;95.60
10572;DHT22;5334;48.928;12.704;2023-05-07T11:59:01;27.60;95.40
10572;DHT22;5334;48.928;12.704;2023-05-07T12:01:26;27.30;96.00
10572;DHT22;5334;48.928;12.704;2023-05-07T12:03:52;27.30;96.00
10572;DHT22;5334;48.928;12.704;2023-05-07T12:06:18;27.40;95.20
10572;DHT22;5334;48.928;12.704;2023-05-07T12:08:45;27.60;95.60
10572;DHT22;5334;48.928;12.704;2023-05-07T12:11:23;27.60;94.80
10572;DHT22;5334;48.928;12.704;2023-05-07T12:16:15;27.70;94.30
10572;DHT22;5334;48.928;12.704;2023-05-07T12:18:41;27.80;93.70
10572;DHT22;5334;48.928;12.704;2023-05-07T12:21:07;27.70;93.70
10572;DHT22;5334;48.928;12.704;2023-05-07T12:23:34;27.50;93.90
10572;DHT22;5334;48.928;12.704;2023-05-07T12:26:01;27.40;93.50
10572;DHT22;5334;48.928;12.704;2023-05-07T12:28:27;27.30;93.50
10572;DHT22;5334;48.928;12.704;2023-05-07T12:30:53;27.00;92.40
10572;DHT22;5334;48.928;12.704;2023-05-07T12:33:24;26.70;93.50
10572;DHT22;5334;48.928;12.704;2023-05-07T12:35:50;26.90;93.90
10572;DHT22;5334;48.928;12.704;2023-05-07T12:38:17;27.00;94.20
10572;DHT22;5334;48.928;12.704;2023-05-07T12:40:45;27.20;93.90
10572;DHT22;5334;48.928;12.704;2023-05-07T12:43:20;27.50;93.70
10572;DHT22;5334;48.928;12.704;2023-05-07T12:45:50;27.70;93.40
10572;DHT22;5334;48.928;12.704;2023-05-07T12:48:15;28.00;93.20
10572;DHT22;5334;48.928;12.704;2023-05-07T12:50:41;28.20;92.80
10572;DHT22;5334;48.928;12.704;2023-05-07T12:53:10;28.30;92.20
10572;DHT22;5334;48.928;12.704;2023-05-07T12:55:48;28.30;92.30
10572;DHT22;5334;48.928;12.704;2023-05-07T12:58:18;28.40;92.20
10572;DHT22;5334;48.928;12.704;2023-05-07T13:00:45;28.40;91.70
10572;DHT22;5334;48.928;12.704;2023-05-07T13:03:25;28.30;91.00
10572;DHT22;5334;48.928;12.704;2023-05-07T13:05:51;28.50;91.30
10572;DHT22;5334;48.928;12.704;2023-05-07T13:10:50;28.80;90.30
10572;DHT22;5334;48.928;12.704;2023-05-07T13:13:15;28.80;90.00
10572;DHT22;5334;48.928;12.704;2023-05-07T13:15:41;28.50;89.40
10572;DHT22;5334;48.928;12.704;2023-05-07T13:18:07;28.50;90.60
10572;DHT22;5334;48.928;12.704;2023-05-07T13:20:32;28.50;90.50
10572;DHT22;5334;48.928;12.704;2023-05-07T13:22:58;28.50;89.50
10572;DHT22;5334;48.928;12.704;2023-05-07T13:25:26;28.30;88.90
10572;DHT22;5334;48.928;12.704;2023-05-07T13:27:52;28.50;90.10
10572;DHT22;5334;48.928;12.704;2023-05-07T13:30:17;28.40;90.10
10572;DHT22;5334;48.928;12.704;2023-05-07T13:32:43;28.00;89.00
10572;DHT22;5334;48.928;12.704;2023-05-07T13:35:09;28.00;90.50
10572;DHT22;5334;48.928;12.704;2023-05-07T13:37:35;28.30;90.30
10572;DHT22;5334;48.928;12.704;2023-05-07T13:40:00;28.50;90.40
10572;DHT22;5334;48.928;12.704;2023-05-07T13:42:26;28.50;89.30
10572;DHT22;5334;48.928;12.704;2023-05-07T13:44:52;28.50;88.90
10572;DHT22;5334;48.928;12.704;2023-05-07T13:47:17;28.40;89.20
10572;DHT22;5334;48.928;12.704;2023-05-07T13:49:43;28.30;89.20
10572;DHT22;5334;48.928;12.704;2023-05-07T13:52:08;28.30;89.10
10572;DHT22;5334;48.928;12.704;2023-05-07T13:54:34;28.20;89.60
10572;DHT22;5334;48.928;12.704;2023-05-07T13:57:00;28.00;89.70
10572;DHT22;5334;48.928;12.704;2023-05-07T13:59:25;28.00;90.00
10572;DHT22;5334;48.928;12.704;2023-05-07T14:01:51;28.10;89.20
10572;DHT22;5334;48.928;12.704;2023-05-07T14:04:17;27.80;90.10
10572;DHT22;5334;48.928;12.704;2023-05-07T14:06:42;28.00;90.40
10572;DHT22;5334;48.928;12.704;2023-05-07T14:09:08;27.90;90.00
10572;DHT22;5334;48.928;12.704;2023-05-07T14:11:34;28.00;89.30
10572;DHT22;5334;48.928;12.704;2023-05-07T14:13:59;27.90;88.60
10572;DHT22;5334;48.928;12.704;2023-05-07T14:16:25;27.80;88.90
10572;DHT22;5334;48.928;12.704;2023-05-07T14:18:51;27.90;88.40
10572;DHT22;5334;48.928;12.704;2023-05-07T14:21:16;28.00;88.70
10572;DHT22;5334;48.928;12.704;2023-05-07T14:23:42;28.00;87.10
10572;DHT22;5334;48.928;12.704;2023-05-07T14:26:08;27.90;87.30
10572;DHT22;5334;48.928;12.704;2023-05-07T14:28:33;27.90;86.30
10572;DHT22;5334;48.928;12.704;2023-05-07T14:30:59;27.60;86.20
10572;DHT22;5334;48.928;12.704;2023-05-07T14:33:25;27.40;88.20
10572;DHT22;5334;48.928;12.704;2023-05-07T14:35:50;27.10;88.30
10572;DHT22;5334;48.928;12.704;2023-05-07T14:38:16;26.90;89.00
10572;DHT22;5334;48.928;12.704;2023-05-07T14:40:42;26.60;89.20
10572;DHT22;5334;48.928;12.704;2023-05-07T14:43:08;25.80;88.50
10572;DHT22;5334;48.928;12.704;2023-05-07T14:45:33;25.10;90.30
10572;DHT22;5334;48.928;12.704;2023-05-07T14:47:59;24.20;90.70
10572;DHT22;5334;48.928;12.704;2023-05-07T14:50:24;23.50;91.60
10572;DHT22;5334;48.928;12.704;2023-05-07T14:52:50;23.20;92.10
10572;DHT22;5334;48.928;12.704;2023-05-07T14:55:16;23.40;92.60
10572;DHT22;5334;48.928;12.704;2023-05-07T14:57:41;23.60;92.50
10572;DHT22;5334;48.928;12.704;2023-05-07T15:00:08;23.50;92.40
10572;DHT22;5334;48.928;12.704;2023-05-07T15:02:34;23.50;93.30
10572;DHT22;5334;48.928;12.704;2023-05-07T15:05:00;23.90;93.40
10572;DHT22;5334;48.928;12.704;2023-05-07T15:07:26;24.30;93.30
10572;DHT22;5334;48.928;12.704;2023-05-07T15:09:52;24.50;93.50
10572;DHT22;5334;48.928;12.704;2023-05-07T15:12:18;24.30;93.80
10572;DHT22;5334;48.928;12.704;2023-05-07T15:14:43;23.70;92.90
10572;DHT22;5334;48.928;12.704;2023-05-07T15:17:09;23.00;93.50
10572;DHT22;5334;48.928;12.704;2023-05-07T15:19:35;22.60;94.50
10572;DHT22;5334;48.928;12.704;2023-05-07T15:22:01;22.50;95.20
10572;DHT22;5334;48.928;12.704;2023-05-07T15:24:30;22.30;94.60
10572;DHT22;5334;48.928;12.704;2023-05-07T15:26:56;22.20;95.00
10572;DHT22;5334;48.928;12.704;2023-05-07T15:29:23;21.90;95.40
10572;DHT22;5334;48.928;12.704;2023-05-07T15:31:49;21.90;96.40
10572;DHT22;5334;48.928;12.704;2023-05-07T15:34:15;22.20;97.80
10572;DHT22;5334;48.928;12.704;2023-05-07T15:36:41;22.30;95.60
10572;DHT22;5334;48.928;12.704;2023-05-07T15:39:06;22.10;95.90
10572;DHT22;5334;48.928;12.704;2023-05-07T15:41:32;21.90;98.30
10572;DHT22;5334;48.928;12.704;2023-05-07T15:43:58;21.80;97.00
10572;DHT22;5334;48.928;12.704;2023-05-07T15:46:24;22.00;98.00
10572;DHT22;5334;48.928;12.704;2023-05-07T15:48:51;22.10;97.80
10572;DHT22;5334;48.928;12.704;2023-05-07T15:51:17;21.30;97.40
10572;DHT22;5334;48.928;12.704;2023-05-07T15:53:44;22.20;97.50
10572;DHT22;5334;48.928;12.704;2023-05-07T15:56:10;22.20;97.30
10572;DHT22;5334;48.928;12.704;2023-05-07T15:58:35;22.20;97.30
10572;DHT22;5334;48.928;12.704;2023-05-07T16:01:02;22.30;97.30
10572;DHT22;5334;48.928;12.704;2023-05-07T16:03:28;22.30;96.80
10572;DHT22;5334;48.928;12.704;2023-05-07T16:05:54;22.20;97.50
10572;DHT22;5334;48.928;12.704;2023-05-07T16:08:25;22.20;96.60
10572;DHT22;5334;48.928;12.704;2023-05-07T16:10:51;22.10;97.10
10572;DHT22;5334;48.928;12.704;2023-05-07T16:13:17;22.10;97.00
10572;DHT22;5334;48.928;12.704;2023-05-07T16:15:44;22.00;96.80
10572;DHT22;5334;48.928;12.704;2023-05-07T16:18:10;22.00;97.30